Time;durP1;ratioP1;P1;durP2;ratioP2;P2;SDS_P1;SDS_P2;PMS_P1;PMS_P2;Temp;Humidity;BMP_temperature;BMP_pressure;BME280_temperature;BME280_humidity;BME280_pressure;Samples;Min_cycle;Max_cycle;Signal;HPM_P1;HPM_P2
2021/11/28 00:02:25;;;;;;;12.63;4.70;;;;;;;;;;4952153;29;20051;-69
2021/11/28 00:04:56;;;;;;;12.75;4.55;;;;;;;;;;4951590;29;20051;-66
2021/11/28 00:07:43;;;;;;;11.48;3.83;;;;;;;;;;4951574;28;20051;-67
2021/11/28 00:12:48;;;;;;;8.90;3.83;;;;;;;;;;4932537;29;20064;-67
2021/11/28 00:15:19;;;;;;;14.07;4.18;;;;;;;;;;4917593;29;20060;-66
2021/11/28 00:17:50;;;;;;;7.95;3.92;;;;;;;;;;4913364;29;20089;-67
2021/11/28 00:20:21;;;;;;;12.77;5.00;;;;;;;;;;4928868;29;20071;-66
2021/11/28 00:22:51;;;;;;;14.18;4.20;;;;;;;;;;4912964;29;20115;-66
2021/11/28 00:25:22;;;;;;;9.68;3.20;;;;;;;;;;4915327;29;20043;-65
2021/11/28 00:27:53;;;;;;;10.13;3.80;;;;;;;;;;4911662;29;20060;-65
2021/11/28 00:30:27;;;;;;;8.93;3.70;;;;;;;;;;4894671;29;20059;-66
2021/11/28 00:33:00;;;;;;;9.55;3.55;;;;;;;;;;4894570;29;20103;-65
2021/11/28 00:35:30;;;;;;;9.23;3.33;;;;;;;;;;4909647;29;20064;-65
2021/11/28 00:38:01;;;;;;;8.95;3.95;;;;;;;;;;4935860;28;20151;-65
2021/11/28 00:40:34;;;;;;;11.77;4.82;;;;;;;;;;4951492;28;20090;-68
2021/11/28 00:43:04;;;;;;;14.15;4.30;;;;;;;;;;4951073;28;20055;-65
2021/11/28 00:45:34;;;;;;;9.25;2.78;;;;;;;;;;4881119;29;20053;-66
2021/11/28 00:48:05;;;;;;;10.60;3.78;;;;;;;;;;4875900;29;20065;-64
2021/11/28 00:50:49;;;;;;;6.63;3.10;;;;;;;;;;4875784;29;20074;-64
2021/11/28 00:53:20;;;;;;;;;;;;;;;;;;4894316;29;20053;-65
2021/11/28 00:55:50;;;;;;;9.52;2.70;;;;;;;;;;4902800;29;19923;-67
2021/11/28 00:58:23;;;;;;;;;;;;;;;;;;4902859;29;20053;-66
2021/11/28 01:00:53;;;;;;;7.82;2.45;;;;;;;;;;4863522;29;19924;-68
2021/11/28 01:03:25;;;;;;;8.20;2.42;;;;;;;;;;4921329;29;20493;-65
2021/11/28 01:05:55;;;;;;;6.13;2.55;;;;;;;;;;4944285;29;20055;-64
2021/11/28 01:08:26;;;;;;;12.93;2.78;;;;;;;;;;4931552;29;20048;-69
2021/11/28 01:10:57;;;;;;;12.38;3.20;;;;;;;;;;4931914;29;20055;-65
2021/11/28 01:13:27;;;;;;;11.52;2.80;;;;;;;;;;4931599;29;20420;-67
2021/11/28 01:15:58;;;;;;;12.52;2.88;;;;;;;;;;4931803;29;20067;-66
2021/11/28 01:18:32;;;;;;;8.88;2.90;;;;;;;;;;4931801;29;20055;-65
2021/11/28 01:21:03;;;;;;;7.72;2.40;;;;;;;;;;4931554;29;20512;-67
2021/11/28 01:23:34;;;;;;;10.63;2.60;;;;;;;;;;4927846;29;20051;-65
2021/11/28 01:26:13;;;;;;;11.55;2.90;;;;;;;;;;4931384;29;20051;-66
2021/11/28 01:28:43;;;;;;;8.98;2.38;;;;;;;;;;4931531;29;20408;-65
2021/11/28 01:31:19;;;;;;;13.05;2.90;;;;;;;;;;4931817;29;20063;-64
2021/11/28 01:33:51;;;;;;;11.02;2.88;;;;;;;;;;4903927;29;20056;-65
2021/11/28 01:36:21;;;;;;;15.65;2.80;;;;;;;;;;4889241;29;20057;-65
2021/11/28 01:38:51;;;;;;;10.32;3.03;;;;;;;;;;4877387;29;20053;-65
2021/11/28 01:41:22;;;;;;;14.63;3.47;;;;;;;;;;4931350;29;20055;-65
2021/11/28 01:43:53;;;;;;;13.45;3.55;;;;;;;;;;4931231;29;20401;-65
2021/11/28 01:46:25;;;;;;;13.25;3.60;;;;;;;;;;4919469;29;20160;-67
2021/11/28 01:48:55;;;;;;;14.45;4.00;;;;;;;;;;4927868;29;20067;-65
2021/11/28 01:51:29;;;;;;;13.55;3.50;;;;;;;;;;4947706;29;20062;-69
2021/11/28 01:54:00;;;;;;;8.32;2.88;;;;;;;;;;4922452;29;20066;-66
2021/11/28 01:56:30;;;;;;;7.20;3.20;;;;;;;;;;4935109;29;20055;-66
2021/11/28 01:59:01;;;;;;;10.45;2.47;;;;;;;;;;4897045;29;20649;-65
2021/11/28 02:01:32;;;;;;;10.25;2.95;;;;;;;;;;4881028;29;20138;-65
2021/11/28 02:04:03;;;;;;;9.52;2.80;;;;;;;;;;4896696;29;20056;-65
2021/11/28 02:06:35;;;;;;;6.63;2.80;;;;;;;;;;4896896;29;20055;-66
2021/11/28 02:09:06;;;;;;;8.63;2.72;;;;;;;;;;4896654;29;20064;-64
2021/11/28 02:11:40;;;;;;;9.13;3.40;;;;;;;;;;4883171;29;20057;-65
2021/11/28 02:14:11;;;;;;;12.35;3.70;;;;;;;;;;4859595;29;20053;-65
2021/11/28 02:16:51;;;;;;;13.20;4.20;;;;;;;;;;4871440;29;20065;-65
2021/11/28 02:19:22;;;;;;;11.73;3.88;;;;;;;;;;4878001;29;20087;-65
2021/11/28 02:21:52;;;;;;;17.48;5.40;;;;;;;;;;4872159;29;20074;-70
2021/11/28 02:24:24;;;;;;;9.02;4.13;;;;;;;;;;4840986;29;20062;-65
2021/11/28 02:26:55;;;;;;;17.50;4.97;;;;;;;;;;4822617;29;20055;-65
2021/11/28 02:29:25;;;;;;;22.67;5.00;;;;;;;;;;4822670;29;20062;-65
2021/11/28 02:31:56;;;;;;;11.60;4.57;;;;;;;;;;4822591;29;20054;-65
2021/11/28 02:34:26;;;;;;;15.48;4.20;;;;;;;;;;4826291;29;20061;-68
2021/11/28 02:36:56;;;;;;;9.70;3.90;;;;;;;;;;4852300;29;20053;-65
2021/11/28 02:39:27;;;;;;;9.52;4.00;;;;;;;;;;4859097;29;20510;-65
2021/11/28 02:41:59;;;;;;;17.75;4.43;;;;;;;;;;4892978;29;20056;-65
2021/11/28 02:44:34;;;;;;;13.13;4.03;;;;;;;;;;4877380;29;20179;-65
2021/11/28 02:47:04;;;;;;;11.57;3.60;;;;;;;;;;4828933;29;20053;-65
2021/11/28 02:49:34;;;;;;;11.52;3.30;;;;;;;;;;4896167;29;20061;-65
2021/11/28 02:52:14;;;;;;;9.68;3.70;;;;;;;;;;4896287;29;20525;-65
2021/11/28 02:54:45;;;;;;;12.13;4.78;;;;;;;;;;4896440;29;20461;-65
2021/11/28 02:57:15;;;;;;;14.80;5.40;;;;;;;;;;4918590;29;20071;-65
2021/11/28 02:59:46;;;;;;;11.77;5.32;;;;;;;;;;4914905;29;20768;-65
2021/11/28 03:02:17;;;;;;;15.30;5.75;;;;;;;;;;4895824;29;20052;-65
2021/11/28 03:04:55;;;;;;;13.30;4.80;;;;;;;;;;4907242;29;20048;-66
2021/11/28 03:07:26;;;;;;;15.13;5.45;;;;;;;;;;4914395;29;20059;-66
2021/11/28 03:09:57;;;;;;;15.18;5.40;;;;;;;;;;4914809;29;20067;-66
2021/11/28 03:12:29;;;;;;;20.98;5.90;;;;;;;;;;4883648;29;20056;-67
2021/11/28 03:15:02;;;;;;;13.68;5.05;;;;;;;;;;4876978;29;20048;-68
2021/11/28 03:17:33;;;;;;;15.52;5.45;;;;;;;;;;4867389;29;20064;-68
2021/11/28 03:20:03;;;;;;;16.50;4.95;;;;;;;;;;4852631;29;20526;-65
2021/11/28 03:22:34;;;;;;;17.40;5.57;;;;;;;;;;4877002;29;20110;-65
2021/11/28 03:25:10;;;;;;;14.02;4.95;;;;;;;;;;4876650;29;20604;-68
2021/11/28 03:27:43;;;;;;;14.32;4.60;;;;;;;;;;4873432;29;20057;-66
2021/11/28 03:30:16;;;;;;;14.40;5.25;;;;;;;;;;4895304;29;20049;-66
2021/11/28 03:33:05;;;;;;;21.23;5.65;;;;;;;;;;4895514;29;20085;-68
2021/11/28 03:35:55;;;;;;;20.30;6.38;;;;;;;;;;4876785;29;20505;-65
2021/11/28 03:38:26;;;;;;;23.13;6.00;;;;;;;;;;4876327;29;20057;-66
2021/11/28 03:40:58;;;;;;;12.80;5.32;;;;;;;;;;4861444;29;20053;-69
2021/11/28 03:43:33;;;;;;;21.25;6.57;;;;;;;;;;4860649;29;20060;-67
2021/11/28 03:46:04;;;;;;;15.00;5.97;;;;;;;;;;4842998;29;20057;-66
2021/11/28 03:48:36;;;;;;;14.43;6.47;;;;;;;;;;4858618;29;20076;-66
2021/11/28 03:51:12;;;;;;;17.95;5.78;;;;;;;;;;4895394;29;20053;-70
2021/11/28 03:53:43;;;;;;;17.83;5.88;;;;;;;;;;4896293;29;20649;-67
2021/11/28 03:56:17;;;;;;;14.07;5.07;;;;;;;;;;4913338;29;20064;-70
2021/11/28 03:58:54;;;;;;;13.65;4.28;;;;;;;;;;4914634;29;20417;-67
2021/11/28 04:01:24;;;;;;;11.55;5.25;;;;;;;;;;4877619;29;20061;-66
2021/11/28 04:03:55;;;;;;;14.10;5.25;;;;;;;;;;4844314;29;20060;-66
2021/11/28 04:07:00;;;;;;;12.55;4.47;;;;;;;;;;4878597;29;20604;-66
2021/11/28 04:09:32;;;;;;;15.90;4.72;;;;;;;;;;4914454;29;20060;-68
2021/11/28 04:12:06;;;;;;;13.60;4.30;;;;;;;;;;4899351;29;20409;-66
2021/11/28 04:14:40;;;;;;;13.32;4.40;;;;;;;;;;4914579;29;20083;-72
2021/11/28 04:17:13;;;;;;;9.57;4.03;;;;;;;;;;4893011;29;20049;-66
2021/11/28 04:19:49;;;;;;;10.88;4.40;;;;;;;;;;4910983;29;20433;-68
2021/11/28 04:22:20;;;;;;;12.48;4.43;;;;;;;;;;4893109;29;20060;-67
2021/11/28 04:24:52;;;;;;;8.77;3.85;;;;;;;;;;4894745;29;20099;-66
2021/11/28 04:27:23;;;;;;;12.38;4.90;;;;;;;;;;4872868;29;20422;-67
2021/11/28 04:29:53;;;;;;;11.38;4.60;;;;;;;;;;4857883;29;20057;-67
2021/11/28 04:32:24;;;;;;;11.43;4.85;;;;;;;;;;4875394;29;20057;-66
2021/11/28 04:35:00;;;;;;;13.40;5.47;;;;;;;;;;4871902;29;20053;-66
2021/11/28 04:37:31;;;;;;;12.20;4.72;;;;;;;;;;4870109;29;20322;-67
2021/11/28 04:40:01;;;;;;;9.20;4.20;;;;;;;;;;4876808;29;20057;-66
2021/11/28 04:42:32;;;;;;;8.43;3.60;;;;;;;;;;4879038;29;20399;-68
2021/11/28 04:45:06;;;;;;;6.60;3.30;;;;;;;;;;4876540;29;20057;-66
2021/11/28 04:47:39;;;;;;;7.07;3.15;;;;;;;;;;4845519;29;20515;-66
2021/11/28 04:50:13;;;;;;;8.77;3.10;;;;;;;;;;4838903;29;20087;-66
2021/11/28 04:52:44;;;;;;;7.50;3.20;;;;;;;;;;4838974;29;20065;-66
2021/11/28 04:55:15;;;;;;;12.02;3.75;;;;;;;;;;4827735;29;20106;-67
2021/11/28 04:57:46;;;;;;;11.00;4.43;;;;;;;;;;4828520;29;20412;-69
2021/11/28 05:00:21;;;;;;;15.07;4.50;;;;;;;;;;4839024;29;20407;-66
2021/11/28 05:02:56;;;;;;;11.50;4.88;;;;;;;;;;4809256;29;20062;-66
2021/11/28 05:05:33;;;;;;;15.50;5.18;;;;;;;;;;4831787;29;20062;-66
2021/11/28 05:08:22;;;;;;;10.73;5.50;;;;;;;;;;4792952;29;20524;-66
2021/11/28 05:10:53;;;;;;;15.57;6.05;;;;;;;;;;4835798;29;20084;-67
2021/11/28 05:13:24;;;;;;;13.93;6.10;;;;;;;;;;4856557;29;20061;-66
2021/11/28 05:15:54;;;;;;;13.55;5.93;;;;;;;;;;4856521;29;20057;-68
2021/11/28 05:18:43;;;;;;;17.45;5.95;;;;;;;;;;4856745;29;20053;-66
2021/11/28 05:21:54;;;;;;;14.68;5.78;;;;;;;;;;4877796;29;20427;-67
2021/11/28 05:24:24;;;;;;;16.08;6.03;;;;;;;;;;4894770;29;20059;-67
2021/11/28 05:26:56;;;;;;;12.73;5.22;;;;;;;;;;4910793;29;20213;-69
2021/11/28 05:29:27;;;;;;;12.00;5.82;;;;;;;;;;4860974;29;20466;-66
2021/11/28 05:31:57;;;;;;;12.90;5.60;;;;;;;;;;4894488;29;20059;-67
2021/11/28 05:34:42;;;;;;;;;;;;;;;;;;4896070;29;20060;-66
2021/11/28 05:37:25;;;;;;;15.65;4.65;;;;;;;;;;4890924;29;19938;-68
2021/11/28 05:40:04;;;;;;;12.10;4.53;;;;;;;;;;4904234;29;20064;-67
2021/11/28 05:42:35;;;;;;;21.58;4.47;;;;;;;;;;4858122;29;20056;-66
2021/11/28 05:45:06;;;;;;;10.25;4.13;;;;;;;;;;4876229;29;20053;-66
2021/11/28 05:47:54;;;;;;;13.13;4.72;;;;;;;;;;4877448;29;20053;-70
2021/11/28 05:50:40;;;;;;;8.77;3.92;;;;;;;;;;4894460;29;20055;-67
2021/11/28 05:53:11;;;;;;;9.55;3.90;;;;;;;;;;4956334;28;20058;-67
2021/11/28 05:55:43;;;;;;;14.32;4.30;;;;;;;;;;4951493;29;20096;-70
2021/11/28 05:58:14;;;;;;;10.57;3.55;;;;;;;;;;4940943;28;20485;-69
2021/11/28 06:00:46;;;;;;;8.40;3.25;;;;;;;;;;4951660;28;20523;-66
2021/11/28 06:03:18;;;;;;;6.10;3.28;;;;;;;;;;4936294;29;20059;-66
2021/11/28 06:06:04;;;;;;;9.73;3.50;;;;;;;;;;4950339;29;20412;-67
2021/11/28 06:09:07;;;;;;;10.63;3.33;;;;;;;;;;4951352;29;20062;-69
2021/11/28 06:11:39;;;;;;;9.63;2.92;;;;;;;;;;4889181;29;20047;-66
2021/11/28 06:14:10;;;;;;;7.53;3.08;;;;;;;;;;4952106;29;20063;-67
2021/11/28 06:16:58;;;;;;;11.52;3.03;;;;;;;;;;4951673;29;20518;-67
2021/11/28 06:19:49;;;;;;;8.95;3.47;;;;;;;;;;4894503;29;20056;-66
2021/11/28 06:22:55;;;;;;;7.32;3.05;;;;;;;;;;4876052;29;20056;-67
2021/11/28 06:25:26;;;;;;;7.43;3.00;;;;;;;;;;4894339;29;20056;-66
2021/11/28 06:28:17;;;;;;;5.90;3.30;;;;;;;;;;4888011;29;20065;-67
2021/11/28 06:30:48;;;;;;;9.38;3.28;;;;;;;;;;4876047;29;20065;-66
2021/11/28 06:33:18;;;;;;;8.80;3.00;;;;;;;;;;4866921;29;20053;-68
2021/11/28 06:36:06;;;;;;;9.48;3.70;;;;;;;;;;4870169;29;20066;-67
2021/11/28 06:39:13;;;;;;;7.68;3.40;;;;;;;;;;4879427;29;20049;-67
2021/11/28 06:42:12;;;;;;;9.95;3.70;;;;;;;;;;4843658;29;20050;-66
2021/11/28 06:44:44;;;;;;;8.00;4.25;;;;;;;;;;4842323;29;20081;-69
2021/11/28 06:47:27;;;;;;;7.15;3.10;;;;;;;;;;5172408;27;20589;-67
2021/11/28 06:49:58;;;;;;;8.70;3.60;;;;;;;;;;5107669;28;20051;-67
2021/11/28 06:52:47;;;;;;;13.20;3.67;;;;;;;;;;5095437;28;20071;-67
2021/11/28 06:55:30;;;;;;;9.77;4.18;;;;;;;;;;5109790;28;20078;-67
2021/11/28 06:58:20;;;;;;;10.88;4.22;;;;;;;;;;5047292;28;20049;-67
2021/11/28 07:00:50;;;;;;;15.23;4.10;;;;;;;;;;5027548;28;20053;-67
2021/11/28 07:03:22;;;;;;;10.35;4.20;;;;;;;;;;5027443;28;20118;-66
2021/11/28 07:05:53;;;;;;;16.15;4.28;;;;;;;;;;4978858;28;20054;-67
2021/11/28 07:08:23;;;;;;;11.18;4.13;;;;;;;;;;4987349;28;20046;-68
2021/11/28 07:10:56;;;;;;;11.57;3.85;;;;;;;;;;4967640;28;20047;-67
2021/11/28 07:13:29;;;;;;;9.77;3.80;;;;;;;;;;4948842;28;20052;-67
2021/11/28 07:16:00;;;;;;;15.68;3.88;;;;;;;;;;4944933;28;20048;-68
2021/11/28 07:18:43;;;;;;;7.93;3.47;;;;;;;;;;4924585;29;20064;-67
2021/11/28 07:21:15;;;;;;;12.13;3.70;;;;;;;;;;4925894;29;20572;-68
2021/11/28 07:23:50;;;;;;;9.90;3.38;;;;;;;;;;4914535;29;20051;-66
2021/11/28 07:26:21;;;;;;;11.07;3.80;;;;;;;;;;4906763;29;20045;-67
2021/11/28 07:28:51;;;;;;;14.50;4.03;;;;;;;;;;4942570;28;20570;-66
2021/11/28 07:31:22;;;;;;;12.73;3.90;;;;;;;;;;4967492;28;20459;-68
2021/11/28 07:33:57;;;;;;;11.23;4.40;;;;;;;;;;4967608;28;20054;-67
2021/11/28 07:36:45;;;;;;;11.27;4.93;;;;;;;;;;4967580;28;20055;-70
2021/11/28 07:39:15;;;;;;;9.38;4.05;;;;;;;;;;4967610;28;20063;-66
2021/11/28 07:41:47;;;;;;;13.52;4.18;;;;;;;;;;4967650;28;20171;-67
2021/11/28 07:44:37;;;;;;;7.70;3.83;;;;;;;;;;4954550;28;20051;-67
2021/11/28 07:47:30;;;;;;;14.13;3.45;;;;;;;;;;4987614;28;20523;-67
2021/11/28 07:50:21;;;;;;;7.13;3.53;;;;;;;;;;4979519;28;20054;-66
2021/11/28 07:52:52;;;;;;;8.80;3.25;;;;;;;;;;4986933;28;20059;-66
2021/11/28 07:55:29;;;;;;;6.35;3.47;;;;;;;;;;4991398;28;20407;-66
2021/11/28 07:58:01;;;;;;;7.95;2.80;;;;;;;;;;4982034;28;20058;-66
2021/11/28 08:00:49;;;;;;;9.55;3.25;;;;;;;;;;4997355;28;20418;-68
2021/11/28 08:03:26;;;;;;;9.65;3.35;;;;;;;;;;5012318;28;20053;-69
2021/11/28 08:06:17;;;;;;;9.70;3.85;;;;;;;;;;5004646;28;20445;-66
2021/11/28 08:09:17;;;;;;;11.27;4.43;;;;;;;;;;4993195;28;20058;-66
2021/11/28 08:12:03;;;;;;;10.82;4.07;;;;;;;;;;4992494;28;20058;-67
2021/11/28 08:14:35;;;;;;;13.38;3.88;;;;;;;;;;5012380;28;20073;-69
2021/11/28 08:17:06;;;;;;;9.30;4.05;;;;;;;;;;5012652;28;20066;-68
2021/11/28 08:19:36;;;;;;;10.73;3.85;;;;;;;;;;5000567;28;20526;-67
2021/11/28 08:22:07;;;;;;;11.10;3.92;;;;;;;;;;4997290;28;20074;-68
2021/11/28 08:24:38;;;;;;;11.23;4.97;;;;;;;;;;4988113;28;20064;-68
2021/11/28 08:27:09;;;;;;;11.27;4.50;;;;;;;;;;4972589;28;20054;-67
2021/11/28 08:29:41;;;;;;;8.60;3.97;;;;;;;;;;4987666;28;20062;-67
2021/11/28 08:32:22;;;;;;;9.32;4.30;;;;;;;;;;4971841;28;20443;-70
2021/11/28 08:34:55;;;;;;;11.23;4.32;;;;;;;;;;4972223;28;20443;-67
2021/11/28 08:37:25;;;;;;;10.23;4.50;;;;;;;;;;4964763;28;20416;-67
2021/11/28 08:39:56;;;;;;;9.88;3.67;;;;;;;;;;4933637;29;20060;-67
2021/11/28 08:42:32;;;;;;;12.38;4.85;;;;;;;;;;4917084;29;20047;-67
2021/11/28 08:45:06;;;;;;;12.00;4.50;;;;;;;;;;4933383;29;20548;-69
2021/11/28 08:47:37;;;;;;;15.15;4.82;;;;;;;;;;4971542;28;20054;-67
2021/11/28 08:50:09;;;;;;;13.93;4.95;;;;;;;;;;4990830;28;20046;-67
2021/11/28 08:52:41;;;;;;;11.65;4.30;;;;;;;;;;4942244;28;20427;-67
2021/11/28 08:55:12;;;;;;;7.45;3.42;;;;;;;;;;4967998;28;20055;-67
2021/11/28 08:57:44;;;;;;;7.65;3.10;;;;;;;;;;4952487;28;20545;-67
2021/11/28 09:00:16;;;;;;;6.78;3.30;;;;;;;;;;4968114;28;20051;-69
2021/11/28 09:02:50;;;;;;;6.68;2.58;;;;;;;;;;4925516;29;20431;-67
2021/11/28 09:05:21;;;;;;;6.15;2.70;;;;;;;;;;4932836;29;20063;-68
2021/11/28 09:07:52;;;;;;;8.95;3.15;;;;;;;;;;4933026;29;20075;-69
2021/11/28 09:10:22;;;;;;;10.85;3.40;;;;;;;;;;4893069;29;20068;-73
2021/11/28 09:12:53;;;;;;;11.02;2.70;;;;;;;;;;4876553;29;20064;-67
2021/11/28 09:15:28;;;;;;;8.32;2.72;;;;;;;;;;4894657;29;20635;-68
2021/11/28 09:18:03;;;;;;;6.40;3.05;;;;;;;;;;4895355;29;20394;-67
2021/11/28 09:20:34;;;;;;;7.13;3.42;;;;;;;;;;4908345;29;20062;-67
2021/11/28 09:25:39;;;;;;;8.05;3.83;;;;;;;;;;4926898;29;20724;-67
2021/11/28 09:28:13;;;;;;;5.60;2.67;;;;;;;;;;4956510;28;20046;-68
2021/11/28 09:30:43;;;;;;;11.02;3.03;;;;;;;;;;4990356;28;20506;-66
2021/11/28 09:33:14;;;;;;;7.47;2.63;;;;;;;;;;4970930;28;20051;-66
2021/11/28 09:35:49;;;;;;;9.48;2.95;;;;;;;;;;4971366;28;20117;-66
2021/11/28 09:38:19;;;;;;;4.95;2.65;;;;;;;;;;4932946;28;20064;-67
2021/11/28 09:40:51;;;;;;;9.65;3.45;;;;;;;;;;4952001;28;20062;-67
2021/11/28 09:43:23;;;;;;;8.40;3.53;;;;;;;;;;4935345;28;20047;-69
2021/11/28 09:45:55;;;;;;;7.57;3.50;;;;;;;;;;4913435;29;20071;-68
2021/11/28 09:48:26;;;;;;;8.73;3.85;;;;;;;;;;4929261;28;20052;-66
2021/11/28 09:50:57;;;;;;;7.00;3.83;;;;;;;;;;4951703;28;20419;-66
2021/11/28 09:53:38;;;;;;;9.43;3.28;;;;;;;;;;4985078;28;20050;-66
2021/11/28 09:56:09;;;;;;;13.32;3.72;;;;;;;;;;5010048;28;20050;-67
2021/11/28 09:58:39;;;;;;;15.35;3.97;;;;;;;;;;5026600;28;20054;-71
2021/11/28 10:01:10;;;;;;;8.25;4.22;;;;;;;;;;4994000;28;20168;-67
2021/11/28 10:03:41;;;;;;;9.57;3.70;;;;;;;;;;5009589;28;20098;-71
2021/11/28 10:06:12;;;;;;;11.82;4.47;;;;;;;;;;4997683;28;20045;-66
2021/11/28 10:08:42;;;;;;;9.77;4.13;;;;;;;;;;4958524;28;20047;-72
2021/11/28 10:11:18;;;;;;;9.60;4.43;;;;;;;;;;4939973;29;20509;-67
2021/11/28 10:13:52;;;;;;;11.27;4.20;;;;;;;;;;4932652;29;20059;-68
2021/11/28 10:16:23;;;;;;;10.40;3.85;;;;;;;;;;4970625;28;20062;-66
2021/11/28 10:18:54;;;;;;;10.73;4.90;;;;;;;;;;4990264;28;20091;-67
2021/11/28 10:21:24;;;;;;;8.57;3.63;;;;;;;;;;4980402;28;20078;-66
2021/11/28 10:24:10;;;;;;;5.65;3.28;;;;;;;;;;4951271;29;20058;-66
2021/11/28 10:26:59;;;;;;;9.32;4.13;;;;;;;;;;4931811;29;20044;-67
2021/11/28 10:29:33;;;;;;;10.50;4.78;;;;;;;;;;4964956;28;20058;-67
2021/11/28 10:32:05;;;;;;;12.57;5.10;;;;;;;;;;5002345;28;20053;-67
2021/11/28 10:34:48;;;;;;;10.27;5.13;;;;;;;;;;5028801;28;20156;-65
2021/11/28 10:37:20;;;;;;;13.20;6.40;;;;;;;;;;5028831;28;20426;-68
2021/11/28 10:39:58;;;;;;;14.10;6.97;;;;;;;;;;5012819;28;20053;-68
2021/11/28 10:42:34;;;;;;;13.73;6.07;;;;;;;;;;5028518;28;20045;-67
2021/11/28 10:45:10;;;;;;;11.15;5.47;;;;;;;;;;5028899;28;20072;-67
2021/11/28 10:47:45;;;;;;;10.65;5.93;;;;;;;;;;5032006;28;20060;-66
2021/11/28 10:50:23;;;;;;;9.43;3.75;;;;;;;;;;5032625;28;20053;-66
2021/11/28 10:53:21;;;;;;;6.32;2.30;;;;;;;;;;4988937;28;20054;-66
2021/11/28 10:55:58;;;;;;;14.25;6.88;;;;;;;;;;4989338;28;20631;-66
2021/11/28 10:58:31;;;;;;;7.72;3.03;;;;;;;;;;4989533;28;20058;-66
2021/11/28 11:01:05;;;;;;;7.97;2.17;;;;;;;;;;4973477;28;20537;-68
2021/11/28 11:03:48;;;;;;;4.20;1.83;;;;;;;;;;4957179;28;20518;-68
2021/11/28 11:06:20;;;;;;;5.07;2.20;;;;;;;;;;4988647;28;20077;-66
2021/11/28 11:08:54;;;;;;;6.00;1.85;;;;;;;;;;4989131;28;20061;-68
2021/11/28 11:11:25;;;;;;;6.82;3.65;;;;;;;;;;4992287;28;20502;-73
2021/11/28 11:14:04;;;;;;;6.10;3.72;;;;;;;;;;4992772;28;20061;-66
2021/11/28 11:16:34;;;;;;;;;;;;;;;;;;4993082;28;20058;-66
2021/11/28 11:19:35;;;;;;;6.32;2.15;;;;;;;;;;5027575;28;19921;-65
2021/11/28 11:22:19;;;;;;;4.43;1.85;;;;;;;;;;5009450;28;20585;-66
2021/11/28 11:25:06;;;;;;;6.45;3.15;;;;;;;;;;4998596;28;20061;-66
2021/11/28 11:27:39;;;;;;;6.63;2.65;;;;;;;;;;5009112;28;20088;-65
2021/11/28 11:30:25;;;;;;;7.57;2.30;;;;;;;;;;5036080;28;20056;-66
2021/11/28 11:33:01;;;;;;;4.80;1.50;;;;;;;;;;5033664;28;20064;-65
2021/11/28 11:35:40;;;;;;;3.55;1.40;;;;;;;;;;5003286;28;20056;-64
2021/11/28 11:38:16;;;;;;;3.67;1.73;;;;;;;;;;5036125;28;20049;-68
2021/11/28 11:40:49;;;;;;;5.80;1.60;;;;;;;;;;5052889;28;20404;-65
2021/11/28 11:43:21;;;;;;;3.50;1.67;;;;;;;;;;5036194;28;20056;-68
2021/11/28 11:45:51;;;;;;;4.60;1.63;;;;;;;;;;5052241;28;20060;-66
2021/11/28 11:48:24;;;;;;;4.95;1.67;;;;;;;;;;5031688;28;20125;-66
2021/11/28 11:50:54;;;;;;;2.90;1.40;;;;;;;;;;5028454;28;20050;-67
2021/11/28 11:53:26;;;;;;;7.25;2.50;;;;;;;;;;5008853;28;20065;-65
2021/11/28 11:55:56;;;;;;;6.03;1.85;;;;;;;;;;4992952;28;20526;-69
2021/11/28 11:58:59;;;;;;;3.28;1.60;;;;;;;;;;4988942;28;20069;-66
2021/11/28 12:01:30;;;;;;;3.03;1.55;;;;;;;;;;4915595;29;20068;-65
2021/11/28 12:04:00;;;;;;;7.47;1.55;;;;;;;;;;4896695;29;20067;-68
2021/11/28 12:06:47;;;;;;;2.75;1.35;;;;;;;;;;4896942;29;20056;-69
2021/11/28 12:09:25;;;;;;;3.00;1.10;;;;;;;;;;4912267;29;20064;-66
2021/11/28 12:12:02;;;;;;;3.63;1.65;;;;;;;;;;4915395;29;20059;-66
2021/11/28 12:14:35;;;;;;;5.88;2.10;;;;;;;;;;4915826;29;20056;-70
2021/11/28 12:17:39;;;;;;;3.22;1.45;;;;;;;;;;4861964;29;20064;-65
2021/11/28 12:20:09;;;;;;;4.00;1.40;;;;;;;;;;4877587;29;20065;-65
2021/11/28 12:22:50;;;;;;;3.92;1.70;;;;;;;;;;4877744;29;20057;-67
2021/11/28 12:25:48;;;;;;;4.28;1.50;;;;;;;;;;4877190;29;20091;-69
2021/11/28 12:28:21;;;;;;;4.68;1.45;;;;;;;;;;4896040;29;20052;-82
2021/11/28 12:31:32;;;;;;;3.72;1.60;;;;;;;;;;4896413;29;20071;-69
2021/11/28 12:34:07;;;;;;;3.08;1.40;;;;;;;;;;4896663;29;20100;-66
2021/11/28 12:36:48;;;;;;;2.83;1.35;;;;;;;;;;4896727;29;20064;-65
2021/11/28 12:39:23;;;;;;;4.55;1.60;;;;;;;;;;4934342;29;20063;-66
2021/11/28 12:42:19;;;;;;;4.78;1.60;;;;;;;;;;4956630;28;20054;-65
2021/11/28 12:44:50;;;;;;;6.63;1.67;;;;;;;;;;4933446;29;20052;-66
2021/11/28 12:47:28;;;;;;;4.57;2.30;;;;;;;;;;4933214;29;20508;-65
2021/11/28 12:50:05;;;;;;;5.20;1.88;;;;;;;;;;4920710;29;20048;-67
2021/11/28 12:52:44;;;;;;;3.58;1.80;;;;;;;;;;4914504;29;20056;-66
2021/11/28 12:55:27;;;;;;;7.15;1.90;;;;;;;;;;4927588;29;20066;-71
2021/11/28 12:58:01;;;;;;;3.05;1.92;;;;;;;;;;4933249;29;20196;-71
2021/11/28 13:00:49;;;;;;;5.60;2.80;;;;;;;;;;4933518;29;20051;-67
2021/11/28 13:03:22;;;;;;;5.50;2.30;;;;;;;;;;4933244;29;20052;-65
2021/11/28 13:05:57;;;;;;;6.25;2.85;;;;;;;;;;4951331;28;20054;-65
2021/11/28 13:08:31;;;;;;;7.15;3.75;;;;;;;;;;4955272;28;20063;-68
2021/11/28 13:11:28;;;;;;;5.93;2.65;;;;;;;;;;4972428;28;20058;-66
2021/11/28 13:14:00;;;;;;;4.05;2.13;;;;;;;;;;4971796;28;20416;-65
2021/11/28 13:16:33;;;;;;;5.00;2.00;;;;;;;;;;4965287;28;20058;-65
2021/11/28 13:19:04;;;;;;;4.43;2.13;;;;;;;;;;4990977;28;20399;-66
2021/11/28 13:21:54;;;;;;;4.40;2.22;;;;;;;;;;4981590;28;20054;-66
2021/11/28 13:24:43;;;;;;;4.15;1.92;;;;;;;;;;5010747;28;20421;-65
2021/11/28 13:27:41;;;;;;;3.55;1.77;;;;;;;;;;5030772;28;20060;-65
2021/11/28 13:30:19;;;;;;;5.85;2.78;;;;;;;;;;5010352;28;20065;-65
2021/11/28 13:32:50;;;;;;;4.95;2.20;;;;;;;;;;5010226;28;20453;-66
2021/11/28 13:35:20;;;;;;;4.45;1.85;;;;;;;;;;5026972;28;20050;-65
2021/11/28 13:37:50;;;;;;;6.35;2.67;;;;;;;;;;5029687;28;20493;-65
2021/11/28 13:40:20;;;;;;;4.10;1.98;;;;;;;;;;5030091;28;20076;-65
2021/11/28 13:42:50;;;;;;;10.20;2.25;;;;;;;;;;5009694;28;20076;-64
2021/11/28 13:45:21;;;;;;;3.78;1.75;;;;;;;;;;4989986;28;20430;-65
2021/11/28 13:47:51;;;;;;;6.30;3.70;;;;;;;;;;4941953;28;20054;-67
2021/11/28 13:50:22;;;;;;;6.30;1.98;;;;;;;;;;4990354;28;20426;-65
2021/11/28 13:52:52;;;;;;;3.88;2.03;;;;;;;;;;4990493;28;20078;-65
2021/11/28 13:55:22;;;;;;;4.00;1.70;;;;;;;;;;4969783;28;20050;-68
2021/11/28 13:58:04;;;;;;;4.70;2.10;;;;;;;;;;4935370;29;20055;-65
2021/11/28 14:00:35;;;;;;;3.75;2.08;;;;;;;;;;4951251;29;20059;-64
2021/11/28 14:03:05;;;;;;;2.83;1.63;;;;;;;;;;4931759;29;20107;-64
2021/11/28 14:05:36;;;;;;;3.85;2.47;;;;;;;;;;4900867;29;20055;-65
2021/11/28 14:08:06;;;;;;;5.95;2.42;;;;;;;;;;4938184;28;20051;-65
2021/11/28 14:10:37;;;;;;;4.10;1.95;;;;;;;;;;4970547;28;20415;-65
2021/11/28 14:13:07;;;;;;;5.50;2.53;;;;;;;;;;4970311;28;20062;-65
2021/11/28 14:15:38;;;;;;;4.85;2.15;;;;;;;;;;4970519;28;20058;-68
2021/11/28 14:18:11;;;;;;;6.22;3.33;;;;;;;;;;4970196;28;20069;-65
2021/11/28 14:20:44;;;;;;;6.68;4.05;;;;;;;;;;4912426;29;20052;-64
2021/11/28 14:23:16;;;;;;;5.30;3.08;;;;;;;;;;4924228;29;20067;-64
2021/11/28 14:25:49;;;;;;;7.20;2.60;;;;;;;;;;4916411;29;20060;-65
2021/11/28 14:28:25;;;;;;;8.27;3.10;;;;;;;;;;4923335;28;20419;-64
2021/11/28 14:30:57;;;;;;;6.90;3.08;;;;;;;;;;4912664;29;20056;-67
2021/11/28 14:33:45;;;;;;;8.27;3.03;;;;;;;;;;4965583;28;20398;-64
2021/11/28 14:36:29;;;;;;;9.00;3.58;;;;;;;;;;4950496;29;20538;-67
2021/11/28 14:39:05;;;;;;;7.22;3.08;;;;;;;;;;4951116;29;20744;-64
2021/11/28 14:41:38;;;;;;;6.50;3.47;;;;;;;;;;4967178;28;20066;-65
2021/11/28 14:44:16;;;;;;;6.15;3.15;;;;;;;;;;4931450;29;20764;-66
2021/11/28 14:46:46;;;;;;;8.93;5.20;;;;;;;;;;4899496;29;20063;-65
2021/11/28 14:49:18;;;;;;;35.38;26.35;;;;;;;;;;4931498;29;20055;-64
2021/11/28 14:51:52;;;;;;;;;;;;;;;;;;4893836;29;20049;-65
2021/11/28 14:54:34;;;;;;;8.77;3.70;;;;;;;;;;4893669;29;20391;-64
2021/11/28 14:57:15;;;;;;;8.40;3.65;;;;;;;;;;4893271;29;20418;-66
2021/11/28 14:59:52;;;;;;;22.52;14.77;;;;;;;;;;4912608;29;20532;-64
2021/11/28 15:02:35;;;;;;;9.63;3.95;;;;;;;;;;4912399;29;20206;-65
2021/11/28 15:05:08;;;;;;;6.28;4.32;;;;;;;;;;4912144;29;20132;-65
2021/11/28 15:07:40;;;;;;;9.38;3.42;;;;;;;;;;4915541;29;20064;-66
2021/11/28 15:10:23;;;;;;;6.63;3.33;;;;;;;;;;4953870;28;20051;-65
2021/11/28 15:13:02;;;;;;;9.50;3.78;;;;;;;;;;4957382;28;20062;-64
2021/11/28 15:15:33;;;;;;;8.70;4.10;;;;;;;;;;4992743;28;20065;-65
2021/11/28 15:18:04;;;;;;;7.75;2.80;;;;;;;;;;4960572;28;20062;-65
2021/11/28 15:20:35;;;;;;;7.60;2.72;;;;;;;;;;4993024;28;20057;-69
2021/11/28 15:23:05;;;;;;;7.40;3.15;;;;;;;;;;4980231;28;20069;-65
2021/11/28 15:25:35;;;;;;;8.85;3.17;;;;;;;;;;4953883;28;20058;-69
2021/11/28 15:28:06;;;;;;;5.78;2.63;;;;;;;;;;4954054;28;20063;-64
2021/11/28 15:30:38;;;;;;;6.75;3.17;;;;;;;;;;4934090;29;20055;-64
2021/11/28 15:33:09;;;;;;;6.93;2.50;;;;;;;;;;4935118;29;20070;-64